createdAt,value
2022-08-03T00:01:45.212Z,97.00
2022-08-03T00:04:14.565Z,97.20
2022-08-03T00:06:42.494Z,97.60
2022-08-03T00:09:11.119Z,97.50
2022-08-03T00:11:39.603Z,97.70
2022-08-03T00:14:08.470Z,97.70
2022-08-03T00:16:36.780Z,97.80
2022-08-03T00:19:04.930Z,97.90
2022-08-03T00:21:34.235Z,98.10
2022-08-03T00:24:02.122Z,98.10
2022-08-03T00:26:30.517Z,98.30
2022-08-03T00:28:58.470Z,98.40
2022-08-03T00:31:40.269Z,98.90
2022-08-03T00:34:14.356Z,99.00
2022-08-03T00:36:43.633Z,98.70
2022-08-03T00:39:11.592Z,98.80
2022-08-03T00:41:39.658Z,99.00
2022-08-03T00:44:07.634Z,99.20
2022-08-03T00:46:35.595Z,99.60
2022-08-03T00:49:03.873Z,99.30
2022-08-03T00:51:32.710Z,99.50
2022-08-03T00:54:03.168Z,99.60
2022-08-03T00:56:31.179Z,99.80
2022-08-03T00:58:59.864Z,99.90
2022-08-03T01:01:32.318Z,99.90
2022-08-03T01:04:01.125Z,99.90
2022-08-03T01:06:42.272Z,99.90
2022-08-03T01:09:20.789Z,99.90
2022-08-03T01:12:00.780Z,99.90
2022-08-03T01:14:35.432Z,99.90
2022-08-03T01:17:12.116Z,99.90
2022-08-03T01:19:50.522Z,99.90
2022-08-03T01:22:43.056Z,99.90
2022-08-03T01:25:25.612Z,99.90
2022-08-03T01:28:03.838Z,99.90
2022-08-03T01:30:36.217Z,99.90
2022-08-03T01:33:07.668Z,99.90
2022-08-03T01:35:44.008Z,99.90
2022-08-03T01:38:15.584Z,99.90
2022-08-03T01:40:45.478Z,99.90
2022-08-03T01:44:28.643Z,99.90
2022-08-03T01:46:09.717Z,99.90
2022-08-03T01:48:40.728Z,99.90
2022-08-03T01:51:09.965Z,99.90
2022-08-03T01:53:39.106Z,99.90
2022-08-03T01:56:08.406Z,99.90
2022-08-03T01:58:37.339Z,99.90
2022-08-03T02:01:08.048Z,99.90
2022-08-03T02:04:00.927Z,99.90
2022-08-03T02:06:59.672Z,99.90
2022-08-03T02:09:18.220Z,99.90
2022-08-03T02:11:47.716Z,99.90
2022-08-03T02:14:16.957Z,99.90
2022-08-03T02:16:46.642Z,99.90
2022-08-03T02:19:15.981Z,99.90
2022-08-03T02:21:57.091Z,99.90
2022-08-03T02:24:29.788Z,99.90
2022-08-03T02:26:59.681Z,99.90
2022-08-03T02:29:39.652Z,99.90
2022-08-03T02:32:12.790Z,99.90
2022-08-03T02:34:42.277Z,99.90
2022-08-03T02:37:12.808Z,99.90
2022-08-03T02:39:42.722Z,99.90
2022-08-03T02:42:13.687Z,99.90
2022-08-03T02:44:47.658Z,99.90
2022-08-03T02:47:21.288Z,99.90
2022-08-03T02:49:52.360Z,99.90
2022-08-03T02:52:23.270Z,99.90
2022-08-03T02:54:56.013Z,99.90
2022-08-03T02:57:25.934Z,99.90
2022-08-03T02:59:55.589Z,99.90
2022-08-03T03:02:26.061Z,99.90
2022-08-03T03:05:52.533Z,99.90
2022-08-03T03:07:52.212Z,99.90
2022-08-03T03:10:22.756Z,99.90
2022-08-03T03:12:53.435Z,99.90
2022-08-03T03:15:21.751Z,99.90
2022-08-03T03:17:53.471Z,99.90
2022-08-03T03:20:29.815Z,99.90
2022-08-03T03:23:00.999Z,99.90
2022-08-03T03:25:30.242Z,99.90
2022-08-03T03:27:58.526Z,99.90
2022-08-03T03:30:27.525Z,99.90
2022-08-03T03:32:58.056Z,99.90
2022-08-03T03:35:27.150Z,99.90
2022-08-03T03:37:55.173Z,99.90
2022-08-03T03:40:23.629Z,99.90
2022-08-03T03:42:51.907Z,99.90
2022-08-03T03:45:20.467Z,99.90
2022-08-03T03:47:48.719Z,99.90
2022-08-03T03:50:19.433Z,99.90
2022-08-03T03:52:47.513Z,99.90
2022-08-03T03:55:18.120Z,99.90
2022-08-03T03:57:46.938Z,99.90
2022-08-03T04:00:16.713Z,99.90
2022-08-03T04:02:45.057Z,99.90
2022-08-03T04:05:30.501Z,99.90
2022-08-03T04:08:19.664Z,99.90
2022-08-03T04:11:01.110Z,99.90
2022-08-03T04:13:32.160Z,99.90
2022-08-03T04:16:01.295Z,99.90
2022-08-03T04:18:31.376Z,99.90
2022-08-03T04:21:03.458Z,99.90
2022-08-03T04:23:36.621Z,99.90
2022-08-03T04:26:06.405Z,99.90
2022-08-03T04:28:35.548Z,99.90
2022-08-03T04:31:05.427Z,99.90
2022-08-03T04:33:36.594Z,99.90
2022-08-03T04:36:08.000Z,99.90
2022-08-03T04:38:41.406Z,99.90
2022-08-03T04:41:10.198Z,99.90
2022-08-03T04:43:40.711Z,99.90
2022-08-03T04:46:09.273Z,99.90
2022-08-03T04:48:37.372Z,99.90
2022-08-03T04:51:05.376Z,99.90
2022-08-03T04:53:33.359Z,99.90
2022-08-03T04:56:07.673Z,99.90
2022-08-03T04:58:35.661Z,99.90
2022-08-03T05:01:03.761Z,99.90
2022-08-03T05:03:32.645Z,99.90
2022-08-03T05:06:09.391Z,99.90
2022-08-03T05:08:46.296Z,99.90
2022-08-03T05:11:16.835Z,99.90
2022-08-03T05:13:45.271Z,99.90
2022-08-03T05:16:13.716Z,99.90
2022-08-03T05:18:41.805Z,99.90
2022-08-03T05:21:10.007Z,99.90
2022-08-03T05:23:37.961Z,99.90
2022-08-03T05:26:06.002Z,99.90
2022-08-03T05:28:35.327Z,99.90
2022-08-03T05:31:03.640Z,99.90
2022-08-03T05:33:31.622Z,99.90
2022-08-03T05:36:03.385Z,99.90
2022-08-03T05:38:34.794Z,99.90
2022-08-03T05:41:22.261Z,99.90
2022-08-03T05:43:53.799Z,99.90
2022-08-03T05:46:22.268Z,99.90
2022-08-03T05:48:50.234Z,99.90
2022-08-03T05:51:18.307Z,99.90
2022-08-03T05:53:46.757Z,99.90
2022-08-03T05:56:16.234Z,99.90
2022-08-03T05:58:46.189Z,99.90
2022-08-03T06:01:15.871Z,99.90
2022-08-03T06:03:44.043Z,99.90
2022-08-03T06:06:12.360Z,99.90
2022-08-03T06:08:40.660Z,99.90
2022-08-03T06:11:08.897Z,99.90
2022-08-03T06:13:36.997Z,99.90
2022-08-03T06:16:05.298Z,99.90
2022-08-03T06:18:34.593Z,99.90
2022-08-03T06:21:14.694Z,99.90
2022-08-03T06:23:54.055Z,99.90
2022-08-03T06:26:25.743Z,99.90
2022-08-03T06:28:54.990Z,99.90
2022-08-03T06:31:26.135Z,99.90
2022-08-03T06:34:35.186Z,99.90
2022-08-03T06:36:52.547Z,99.90
2022-08-03T06:39:21.021Z,99.90
2022-08-03T06:41:52.572Z,99.90
2022-08-03T06:44:20.882Z,99.90
2022-08-03T06:46:48.898Z,99.90
2022-08-03T06:49:18.855Z,99.90
2022-08-03T06:52:04.934Z,99.90
2022-08-03T06:54:35.737Z,99.90
2022-08-03T06:57:03.970Z,99.90
2022-08-03T07:00:09.187Z,99.90
2022-08-03T07:02:20.412Z,99.90
2022-08-03T07:04:50.168Z,99.90
2022-08-03T07:07:19.257Z,99.90
2022-08-03T07:09:56.893Z,99.90
2022-08-03T07:12:29.238Z,99.90
2022-08-03T07:15:01.275Z,99.90
2022-08-03T07:17:31.270Z,99.90
2022-08-03T07:20:01.630Z,99.90
2022-08-03T07:22:29.679Z,99.90
2022-08-03T07:24:57.723Z,99.90
2022-08-03T07:27:28.540Z,99.90
2022-08-03T07:29:56.751Z,99.90
2022-08-03T07:32:25.216Z,99.90
2022-08-03T07:35:00.527Z,99.90
2022-08-03T07:37:30.781Z,99.90
2022-08-03T07:39:59.084Z,99.90
2022-08-03T07:42:27.228Z,99.90
2022-08-03T07:44:55.386Z,99.90
2022-08-03T07:47:25.569Z,99.90
2022-08-03T07:50:03.119Z,99.90
2022-08-03T07:52:51.719Z,99.90
2022-08-03T07:55:21.017Z,99.90
2022-08-03T07:57:59.929Z,99.90
2022-08-03T08:00:28.106Z,99.90
2022-08-03T08:02:56.076Z,99.90
2022-08-03T08:05:24.037Z,99.90
2022-08-03T08:07:53.327Z,99.90
2022-08-03T08:10:21.459Z,99.90
2022-08-03T08:12:49.688Z,99.90
2022-08-03T08:15:17.625Z,99.90
2022-08-03T08:17:48.077Z,99.90
2022-08-03T08:20:27.743Z,99.90
2022-08-03T08:23:01.326Z,99.90
2022-08-03T08:25:30.916Z,99.90
2022-08-03T08:28:29.133Z,99.90
2022-08-03T08:30:50.128Z,99.90
2022-08-03T08:33:23.031Z,99.90
2022-08-03T08:36:14.773Z,99.90
2022-08-03T08:38:47.713Z,99.90
2022-08-03T08:41:38.057Z,99.90
2022-08-03T08:44:14.034Z,99.90
2022-08-03T08:46:42.111Z,99.90
2022-08-03T08:49:10.894Z,99.90
2022-08-03T08:51:52.707Z,99.90
2022-08-03T08:54:32.465Z,99.90
2022-08-03T08:57:12.429Z,99.90
2022-08-03T08:59:57.386Z,99.90
2022-08-03T09:02:25.474Z,99.90
2022-08-03T09:04:56.500Z,99.90
2022-08-03T09:07:24.459Z,99.90
2022-08-03T09:10:08.297Z,99.90
2022-08-03T09:12:44.396Z,99.90
2022-08-03T09:15:24.367Z,99.90
2022-08-03T09:17:54.887Z,99.90
2022-08-03T09:20:24.880Z,99.90
2022-08-03T09:22:58.880Z,99.90
2022-08-03T09:25:33.389Z,99.40
2022-08-03T09:28:10.705Z,98.50
2022-08-03T09:30:40.927Z,97.00
2022-08-03T09:33:10.090Z,96.40
2022-08-03T09:35:58.152Z,95.90
2022-08-03T09:38:27.553Z,96.30
2022-08-03T09:41:00.355Z,96.70
2022-08-03T09:43:28.886Z,97.80
2022-08-03T09:46:04.797Z,98.00
2022-08-03T09:48:46.227Z,97.70
2022-08-03T09:51:33.198Z,96.60
2022-08-03T09:54:05.755Z,96.30
2022-08-03T09:56:46.741Z,96.70
2022-08-03T09:59:24.605Z,95.70
2022-08-03T10:01:54.446Z,95.10
2022-08-03T10:04:24.310Z,95.10
2022-08-03T10:07:07.394Z,94.20
2022-08-03T10:09:35.339Z,94.40
2022-08-03T10:12:12.678Z,94.70
2022-08-03T10:14:45.313Z,94.10
2022-08-03T10:17:13.696Z,93.80
2022-08-03T10:19:42.091Z,93.50
2022-08-03T10:22:13.816Z,93.20
2022-08-03T10:24:49.535Z,93.70
2022-08-03T10:27:26.093Z,93.20
2022-08-03T10:29:55.996Z,93.30
2022-08-03T10:32:29.145Z,93.40
2022-08-03T10:35:19.914Z,92.60
2022-08-03T10:37:57.129Z,92.90
2022-08-03T10:40:47.626Z,92.90
2022-08-03T10:43:20.848Z,92.70
2022-08-03T10:45:48.987Z,92.20
2022-08-03T10:48:18.674Z,91.80
2022-08-03T10:50:47.618Z,91.70
2022-08-03T10:53:17.995Z,91.70
2022-08-03T10:56:05.833Z,90.90
2022-08-03T10:58:56.858Z,91.80
2022-08-03T11:01:59.489Z,91.30
2022-08-03T11:04:30.715Z,91.20
2022-08-03T11:07:22.674Z,90.90
2022-08-03T11:09:52.489Z,90.30
2022-08-03T11:12:30.564Z,90.90
2022-08-03T11:15:02.936Z,90.60
2022-08-03T11:17:31.444Z,90.00
2022-08-03T11:19:59.373Z,90.00
2022-08-03T11:22:47.733Z,90.10
2022-08-03T11:25:54.547Z,90.00
2022-08-03T11:28:28.748Z,88.90
2022-08-03T11:30:58.077Z,89.30
2022-08-03T11:33:32.798Z,89.60
2022-08-03T11:36:02.518Z,89.20
2022-08-03T11:38:30.536Z,88.40
2022-08-03T11:40:58.547Z,86.50
2022-08-03T11:43:46.246Z,86.30
2022-08-03T11:46:28.562Z,86.90
2022-08-03T11:49:10.733Z,85.10
2022-08-03T11:51:40.287Z,84.60
2022-08-03T11:54:08.661Z,82.50
2022-08-03T11:56:46.247Z,84.00
2022-08-03T11:59:20.314Z,84.10
2022-08-03T12:01:50.685Z,82.10
2022-08-03T12:04:18.744Z,82.10
2022-08-03T12:07:00.259Z,82.80
2022-08-03T12:09:28.214Z,83.00
2022-08-03T12:12:00.476Z,82.20
2022-08-03T12:14:49.277Z,83.00
2022-08-03T12:17:20.083Z,82.20
2022-08-03T12:19:48.424Z,82.40
2022-08-03T12:22:17.157Z,82.20
2022-08-03T12:24:47.617Z,82.10
2022-08-03T12:27:24.372Z,81.90
2022-08-03T12:29:57.027Z,81.80
2022-08-03T12:32:28.568Z,81.80
2022-08-03T12:35:00.870Z,81.10
2022-08-03T12:37:30.281Z,80.70
2022-08-03T12:40:07.864Z,81.50
2022-08-03T12:42:40.649Z,81.30
2022-08-03T12:45:24.770Z,80.90
2022-08-03T12:47:56.326Z,79.70
2022-08-03T12:50:32.048Z,80.30
2022-08-03T12:53:00.640Z,78.40
2022-08-03T12:55:56.537Z,78.70
2022-08-03T12:58:33.418Z,79.30
2022-08-03T13:01:01.692Z,78.30
2022-08-03T13:03:43.364Z,78.80
2022-08-03T13:06:14.694Z,77.70
2022-08-03T13:08:43.121Z,76.10
2022-08-03T13:11:52.573Z,75.50
2022-08-03T13:14:20.191Z,75.50
2022-08-03T13:16:49.335Z,76.40
2022-08-03T13:19:18.771Z,75.70
2022-08-03T13:21:53.690Z,75.60
2022-08-03T13:24:33.545Z,75.40
2022-08-03T13:28:01.183Z,75.20
2022-08-03T13:29:50.311Z,75.30
2022-08-03T13:32:18.287Z,74.30
2022-08-03T13:34:47.740Z,74.60
2022-08-03T13:37:16.194Z,74.40
2022-08-03T13:39:58.238Z,73.20
2022-08-03T13:42:29.184Z,72.20
2022-08-03T13:44:57.175Z,70.30
2022-08-03T13:47:25.163Z,68.70
2022-08-03T13:50:00.050Z,69.90
2022-08-03T13:52:30.912Z,66.40
2022-08-03T13:54:58.934Z,64.70
2022-08-03T13:58:03.616Z,64.60
2022-08-03T14:00:27.252Z,64.30
2022-08-03T14:03:02.847Z,63.90
2022-08-03T14:05:35.759Z,62.60
2022-08-03T14:08:05.736Z,63.60
2022-08-03T14:10:35.319Z,64.60
2022-08-03T14:13:03.374Z,64.30
2022-08-03T14:15:31.468Z,62.50
2022-08-03T14:17:59.548Z,61.10
2022-08-03T14:20:38.897Z,62.50
2022-08-03T14:23:17.388Z,61.30
2022-08-03T14:25:50.526Z,60.40
2022-08-03T14:28:22.298Z,61.20
2022-08-03T14:30:50.476Z,61.00
2022-08-03T14:33:18.790Z,60.50
2022-08-03T14:35:47.004Z,59.20
2022-08-03T14:38:14.999Z,58.70
2022-08-03T14:40:44.502Z,59.20
2022-08-03T14:43:12.719Z,58.90
2022-08-03T14:45:40.687Z,57.90
2022-08-03T14:50:27.989Z,57.60
2022-08-03T14:50:57.008Z,57.60
2022-08-03T14:53:25.136Z,57.30
2022-08-03T14:55:54.396Z,57.50
2022-08-03T14:58:25.144Z,57.90
2022-08-03T15:00:56.042Z,58.30
2022-08-03T15:03:25.691Z,58.30
2022-08-03T15:05:54.656Z,58.10
2022-08-03T15:08:23.337Z,58.10
2022-08-03T15:10:51.405Z,58.70
2022-08-03T15:13:25.277Z,58.90
2022-08-03T15:15:53.385Z,59.20
2022-08-03T15:18:24.070Z,59.40
2022-08-03T15:20:52.045Z,58.80
2022-08-03T15:23:20.218Z,58.60
2022-08-03T15:26:03.846Z,58.40
2022-08-03T15:28:38.593Z,58.40
2022-08-03T15:31:07.394Z,58.80
2022-08-03T15:33:35.483Z,57.70
2022-08-03T15:36:04.140Z,56.20
2022-08-03T15:38:32.200Z,55.90
2022-08-03T15:41:00.328Z,55.30
2022-08-03T15:43:28.293Z,54.80
2022-08-03T15:46:27.838Z,55.00
2022-08-03T15:48:46.954Z,55.00
2022-08-03T15:51:15.230Z,54.20
2022-08-03T15:53:43.180Z,54.00
2022-08-03T15:56:16.645Z,53.60
2022-08-03T15:59:03.505Z,53.60
2022-08-03T16:01:36.141Z,53.50
2022-08-03T16:04:04.439Z,53.70
2022-08-03T16:06:35.522Z,53.80
2022-08-03T16:09:05.710Z,53.60
2022-08-03T16:11:52.489Z,52.90
2022-08-03T16:14:34.710Z,53.90
2022-08-03T16:17:09.703Z,53.70
2022-08-03T16:19:37.651Z,53.80
2022-08-03T16:22:06.824Z,53.60
2022-08-03T16:24:35.006Z,54.00
2022-08-03T16:27:05.843Z,54.00
2022-08-03T16:29:40.852Z,53.80
2022-08-03T16:32:10.255Z,53.50
2022-08-03T16:34:40.385Z,53.80
2022-08-03T16:37:36.486Z,53.60
2022-08-03T16:39:59.567Z,53.50
2022-08-03T16:42:27.502Z,53.30
2022-08-03T16:44:55.512Z,53.60
2022-08-03T16:47:24.811Z,53.80
2022-08-03T16:49:53.957Z,53.50
2022-08-03T16:52:24.198Z,53.70
2022-08-03T16:54:54.023Z,52.80
2022-08-03T16:57:59.836Z,53.00
2022-08-03T17:00:34.345Z,52.60
2022-08-03T17:03:19.160Z,53.00
2022-08-03T17:05:50.103Z,52.90
2022-08-03T17:08:27.289Z,53.50
2022-08-03T17:10:56.637Z,52.20
2022-08-03T17:13:27.652Z,52.70
2022-08-03T17:16:09.428Z,52.30
2022-08-03T17:18:42.290Z,52.20
2022-08-03T17:21:18.376Z,52.20
2022-08-03T17:23:55.038Z,52.10
2022-08-03T17:26:30.679Z,52.50
2022-08-03T17:29:11.311Z,53.10
2022-08-03T17:31:48.974Z,51.90
2022-08-03T17:34:20.246Z,52.20
2022-08-03T17:37:05.895Z,52.00
2022-08-03T17:42:38.776Z,52.00
2022-08-03T17:45:08.056Z,51.70
2022-08-03T17:47:43.902Z,51.90
2022-08-03T17:50:24.983Z,52.70
2022-08-03T17:53:07.439Z,51.90
2022-08-03T17:55:56.724Z,52.50
2022-08-03T17:58:37.282Z,52.90
2022-08-03T18:02:03.467Z,54.00
2022-08-03T18:04:30.417Z,55.00
2022-08-03T18:07:11.217Z,55.20
2022-08-03T18:10:05.824Z,56.00
2022-08-03T18:12:39.645Z,56.90
2022-08-03T18:20:54.554Z,59.40
2022-08-03T18:23:37.369Z,60.30
2022-08-03T18:26:11.955Z,61.50
2022-08-03T18:28:40.805Z,62.60
2022-08-03T18:34:19.529Z,64.10
2022-08-03T18:36:49.687Z,64.70
2022-08-03T18:39:20.080Z,65.30
2022-08-03T18:41:48.483Z,65.70
2022-08-03T18:44:53.059Z,66.00
2022-08-03T18:47:17.054Z,66.40
2022-08-03T18:49:58.611Z,66.80
2022-08-03T18:52:31.992Z,67.20
2022-08-03T18:55:20.845Z,67.40
2022-08-03T18:58:00.891Z,67.60
2022-08-03T19:00:54.231Z,68.10
2022-08-03T19:03:42.690Z,68.30
2022-08-03T19:06:20.028Z,68.80
2022-08-03T19:08:55.460Z,69.90
2022-08-03T19:11:29.986Z,68.80
2022-08-03T19:14:28.651Z,68.50
2022-08-03T19:17:05.129Z,66.80
2022-08-03T19:19:43.810Z,66.60
2022-08-03T19:22:15.929Z,66.70
2022-08-03T19:24:47.717Z,66.20
2022-08-03T19:27:17.065Z,66.10
2022-08-03T19:29:59.408Z,66.20
2022-08-03T19:32:30.423Z,65.20
2022-08-03T19:34:59.933Z,65.80
2022-08-03T19:40:19.855Z,66.10
2022-08-03T19:43:12.540Z,66.00
2022-08-03T19:46:05.135Z,65.90
2022-08-03T19:48:36.567Z,66.20
2022-08-03T19:51:12.298Z,66.90
2022-08-03T19:53:45.181Z,67.60
2022-08-03T19:56:14.290Z,67.50
2022-08-03T19:58:45.407Z,68.00
2022-08-03T20:01:22.810Z,68.30
2022-08-03T20:03:51.891Z,68.50
2022-08-03T20:06:22.987Z,69.00
2022-08-03T20:08:52.436Z,69.50
2022-08-03T20:11:28.650Z,70.10
2022-08-03T20:13:59.532Z,70.60
2022-08-03T20:16:27.793Z,70.70
2022-08-03T20:21:47.302Z,70.60
2022-08-03T20:24:23.834Z,71.70
2022-08-03T20:26:56.735Z,71.50
2022-08-03T20:29:31.448Z,71.70
2022-08-03T20:32:10.889Z,71.90
2022-08-03T20:34:39.343Z,72.40
2022-08-03T20:37:07.347Z,72.20
2022-08-03T20:39:39.995Z,72.80
2022-08-03T20:42:21.260Z,73.30
2022-08-03T20:45:04.795Z,73.70
2022-08-03T20:47:36.343Z,74.50
2022-08-03T20:50:11.017Z,74.20
2022-08-03T20:52:49.379Z,74.50
2022-08-03T20:55:47.235Z,74.70
2022-08-03T20:58:08.629Z,74.60
2022-08-03T21:00:41.019Z,74.50
2022-08-03T21:03:09.119Z,74.80
2022-08-03T21:05:51.148Z,75.10
2022-08-03T21:08:22.170Z,75.50
2022-08-03T21:10:51.079Z,76.10
2022-08-03T21:12:57.372Z,57.90
2022-08-03T21:12:58.149Z,63.20
2022-08-03T21:13:05.550Z,58.60
2022-08-03T21:13:10.080Z,70.80
2022-08-03T21:13:10.126Z,64.80
2022-08-03T21:13:25.058Z,76.50
2022-08-03T21:16:12.605Z,77.00
2022-08-03T21:18:45.663Z,77.60
2022-08-03T21:21:16.134Z,78.30
2022-08-03T21:23:48.582Z,78.70
2022-08-03T21:26:18.415Z,79.10
2022-08-03T21:28:47.703Z,79.60
2022-08-03T21:31:25.134Z,79.90
2022-08-03T21:33:55.364Z,80.00
2022-08-03T21:36:23.511Z,80.30
2022-08-03T21:38:56.212Z,80.80
2022-08-03T21:41:25.031Z,81.20
2022-08-03T21:43:52.991Z,81.70
2022-08-03T21:46:23.642Z,81.60
2022-08-03T21:48:56.527Z,81.80
2022-08-03T21:51:44.498Z,81.50
2022-08-03T21:54:14.195Z,81.80
2022-08-03T21:56:43.864Z,82.80
2022-08-03T21:59:18.325Z,82.60
2022-08-03T22:01:51.404Z,82.70
2022-08-03T22:04:45.851Z,82.60
2022-08-03T22:07:11.672Z,82.70
2022-08-03T22:09:39.686Z,82.80
2022-08-03T22:12:18.250Z,82.80
2022-08-03T22:14:46.331Z,82.90
2022-08-03T22:17:53.430Z,82.90
2022-08-03T22:20:06.611Z,82.80
2022-08-03T22:22:39.635Z,83.20
2022-08-03T22:25:10.939Z,83.60
2022-08-03T22:27:40.754Z,83.80
2022-08-03T22:30:12.624Z,84.30
2022-08-03T22:32:43.090Z,84.30
2022-08-03T22:35:13.510Z,84.60
2022-08-03T22:37:42.531Z,84.80
2022-08-03T22:40:13.581Z,85.30
2022-08-03T22:42:44.446Z,85.50
2022-08-03T22:46:06.094Z,85.70
2022-08-03T22:48:02.883Z,86.00
2022-08-03T22:50:33.879Z,86.00
2022-08-03T22:53:03.045Z,86.40
2022-08-03T22:55:31.076Z,86.40
2022-08-03T22:57:59.177Z,86.70
2022-08-03T23:00:27.122Z,86.70
2022-08-03T23:02:55.996Z,86.80
2022-08-03T23:06:00.771Z,86.80
2022-08-03T23:08:24.601Z,87.30
2022-08-03T23:10:54.444Z,87.20
2022-08-03T23:13:26.407Z,87.20
2022-08-03T23:15:57.853Z,87.60
2022-08-03T23:18:31.178Z,87.30
2022-08-03T23:21:05.972Z,87.70
2022-08-03T23:23:44.530Z,87.70
2022-08-03T23:26:13.881Z,88.10
2022-08-03T23:28:46.135Z,88.30
2022-08-03T23:31:15.782Z,88.30
2022-08-03T23:33:45.936Z,88.70
2022-08-03T23:36:31.296Z,88.80
2022-08-03T23:39:03.136Z,89.00
2022-08-03T23:41:31.632Z,89.40
2022-08-03T23:44:01.844Z,89.50
2022-08-03T23:46:31.824Z,89.70
2022-08-03T23:49:00.737Z,89.90
2022-08-03T23:51:42.010Z,89.90
2022-08-03T23:54:22.260Z,90.00
2022-08-03T23:56:56.255Z,90.00
2022-08-03T23:59:33.171Z,90.10
